Time;durP1;ratioP1;P1;durP2;ratioP2;P2;SDS_P1;SDS_P2;PMS_P1;PMS_P2;Temp;Humidity;BMP_temperature;BMP_pressure;BME280_temperature;BME280_humidity;BME280_pressure;Samples;Min_cycle;Max_cycle;Signal;HPM_P1;HPM_P2
2023/06/26 00:00:24;;;;;;;9.68;8.75;;;;;;;23.98;62.60;101024.16;5039137;28;20032;-73
2023/06/26 00:02:50;;;;;;;9.93;9.02;;;;;;;23.94;61.12;101030.06;5038883;28;20103;-74
2023/06/26 00:05:15;;;;;;;9.90;9.00;;;;;;;23.88;61.63;101030.72;5042252;28;20203;-71
2023/06/26 00:07:41;;;;;;;10.18;9.27;;;;;;;23.86;62.33;101037.16;5039809;28;20474;-71
2023/06/26 00:10:06;;;;;;;8.98;8.15;;;;;;;23.79;62.14;101036.13;5039911;28;20111;-73
2023/06/26 00:12:32;;;;;;;10.35;9.45;;;;;;;23.75;61.67;101042.03;5024109;28;20028;-72
2023/06/26 00:14:58;;;;;;;10.18;9.27;;;;;;;23.73;61.52;101025.00;5040944;28;20104;-73
2023/06/26 00:17:23;;;;;;;9.75;8.75;;;;;;;23.73;61.79;101044.88;5041541;28;20078;-73
2023/06/26 00:19:49;;;;;;;8.88;8.05;;;;;;;23.73;61.11;101027.72;5041426;28;20029;-73
2023/06/26 00:22:18;;;;;;;9.57;8.10;;;;;;;23.68;60.90;101028.22;5039614;28;20029;-74
2023/06/26 00:24:44;;;;;;;8.15;7.50;;;;;;;23.65;61.13;101028.50;5039901;28;20021;-72
2023/06/26 00:27:10;;;;;;;9.13;8.13;;;;;;;23.65;61.22;101033.94;5038005;28;20289;-75
2023/06/26 00:29:35;;;;;;;8.80;8.00;;;;;;;23.63;60.83;101027.81;5040015;28;20093;-71
2023/06/26 00:32:01;;;;;;;8.52;7.72;;;;;;;23.60;60.99;101026.25;5016936;28;20040;-74
2023/06/26 00:34:26;;;;;;;8.30;7.60;;;;;;;23.54;60.89;101026.03;5041464;28;20037;-72
2023/06/26 00:36:52;;;;;;;8.50;7.70;;;;;;;23.59;60.84;101031.84;5012057;28;20041;-70
2023/06/26 00:39:17;;;;;;;8.95;8.05;;;;;;;23.56;61.05;101035.72;5040658;28;20035;-73
2023/06/26 00:41:43;;;;;;;8.85;7.95;;;;;;;23.53;61.39;101032.47;5039169;28;20458;-72
2023/06/26 00:44:08;;;;;;;9.07;8.00;;;;;;;23.49;61.12;101025.63;5039207;28;20051;-74
2023/06/26 00:46:34;;;;;;;8.80;7.90;;;;;;;23.44;61.29;101028.81;5038005;28;20426;-74
2023/06/26 00:49:03;;;;;;;9.30;8.40;;;;;;;23.40;61.24;101023.88;5037270;28;20037;-72
2023/06/26 00:51:29;;;;;;;8.73;7.80;;;;;;;23.36;61.64;101026.88;5038567;28;20411;-73
2023/06/26 00:53:56;;;;;;;8.80;7.90;;;;;;;23.33;61.91;101029.09;5020714;28;20491;-76
2023/06/26 00:56:22;;;;;;;8.65;7.95;;;;;;;23.28;61.63;101029.56;5040415;28;20028;-73
2023/06/26 00:58:48;;;;;;;8.45;7.63;;;;;;;23.23;61.60;101031.88;5040261;28;20100;-75
2023/06/26 01:01:17;;;;;;;8.75;7.88;;;;;;;23.22;60.66;101042.91;5022787;28;20037;-72
2023/06/26 01:03:51;;;;;;;7.95;7.25;;;;;;;23.16;61.09;101048.94;5038776;28;20124;-76
2023/06/26 01:06:18;;;;;;;8.77;7.88;;;;;;;23.13;60.97;101041.13;5039376;28;20025;-72
2023/06/26 01:08:45;;;;;;;8.57;7.60;;;;;;;23.02;60.99;101047.63;5036767;28;20399;-73
2023/06/26 01:11:11;;;;;;;8.57;7.50;;;;;;;22.94;60.97;101042.09;5034656;28;20024;-76
2023/06/26 01:13:37;;;;;;;7.47;6.72;;;;;;;22.86;60.79;101043.69;5037617;28;20191;-72
2023/06/26 01:16:05;;;;;;;7.78;6.43;;;;;;;22.79;60.45;101045.31;5039381;28;20075;-76
2023/06/26 01:18:32;;;;;;;7.78;6.10;;;;;;;22.75;59.42;101043.91;5038682;28;20032;-75
2023/06/26 01:21:00;;;;;;;6.88;6.18;;;;;;;22.70;59.61;101042.63;5040628;28;20561;-75
2023/06/26 01:23:37;;;;;;;6.90;6.18;;;;;;;22.61;59.97;101060.69;5032319;28;20045;-73
2023/06/26 01:26:22;;;;;;;6.90;6.22;;;;;;;22.61;59.96;101055.25;5038383;28;20032;-73
2023/06/26 01:28:50;;;;;;;7.40;6.55;;;;;;;22.49;60.40;101054.63;5039317;28;20078;-72
2023/06/26 01:31:19;;;;;;;6.22;5.60;;;;;;;22.45;61.07;101049.63;5039721;28;20071;-72
2023/06/26 01:33:45;;;;;;;7.20;6.05;;;;;;;22.41;61.34;101046.38;5040256;28;20029;-73
2023/06/26 01:36:11;;;;;;;7.00;6.15;;;;;;;22.27;61.26;101042.28;5039733;28;20025;-75
2023/06/26 01:38:36;;;;;;;7.47;6.25;;;;;;;22.29;61.79;101053.84;5037020;28;20028;-76
2023/06/26 01:41:02;;;;;;;7.43;6.65;;;;;;;22.24;62.12;101053.44;5039655;28;20033;-71
2023/06/26 01:43:38;;;;;;;7.20;6.50;;;;;;;22.24;62.11;101060.69;5018602;28;20480;-73
2023/06/26 01:46:09;;;;;;;7.63;6.70;;;;;;;22.15;62.34;101065.16;5040331;28;20057;-75
2023/06/26 01:48:44;;;;;;;7.25;6.13;;;;;;;22.09;62.40;101072.00;5039310;28;20031;-76
2023/06/26 01:51:14;;;;;;;6.72;6.07;;;;;;;22.03;61.44;101078.03;5035726;28;20470;-72
2023/06/26 01:53:44;;;;;;;6.57;5.95;;;;;;;21.99;61.25;101075.75;5038941;28;20055;-73
2023/06/26 01:56:18;;;;;;;6.18;5.55;;;;;;;21.94;61.04;101089.72;5019013;28;20021;-70
2023/06/26 01:58:47;;;;;;;7.47;5.60;;;;;;;21.85;60.89;101086.03;5039874;28;20130;-72
2023/06/26 02:01:13;;;;;;;6.50;5.70;;;;;;;21.82;61.18;101089.06;5038859;28;20114;-73
2023/06/26 02:03:38;;;;;;;6.28;5.55;;;;;;;21.72;61.73;101087.34;5040234;28;20060;-70
2023/06/26 02:06:03;;;;;;;8.43;5.85;;;;;;;21.72;61.98;101085.47;5041388;28;20027;-73
2023/06/26 02:08:29;;;;;;;7.78;5.50;;;;;;;21.63;61.93;101091.78;5042820;28;20414;-74
2023/06/26 02:10:54;;;;;;;6.85;5.38;;;;;;;21.56;61.86;101090.63;5041445;28;20039;-71
2023/06/26 02:13:19;;;;;;;7.32;5.40;;;;;;;21.49;62.21;101105.75;5037824;28;21589;-73
2023/06/26 02:15:45;;;;;;;7.05;5.32;;;;;;;21.42;61.85;101105.47;5041675;28;20143;-75
2023/06/26 02:18:10;;;;;;;6.55;5.60;;;;;;;21.34;62.28;101091.78;5042709;28;20036;-73
2023/06/26 02:20:35;;;;;;;6.88;5.00;;;;;;;21.24;62.00;101097.16;5041356;28;20276;-74
2023/06/26 02:23:01;;;;;;;6.25;4.97;;;;;;;21.18;62.65;101103.13;5036994;28;20063;-74
2023/06/26 02:25:27;;;;;;;11.27;5.90;;;;;;;21.09;62.75;101106.66;5036077;28;20064;-71
2023/06/26 02:27:52;;;;;;;6.32;5.07;;;;;;;21.09;63.16;101099.41;5034368;28;20099;-73
2023/06/26 02:30:20;;;;;;;5.20;4.60;;;;;;;21.03;63.22;101109.94;5020242;28;20029;-70
2023/06/26 02:32:46;;;;;;;9.18;5.07;;;;;;;20.99;63.28;101103.09;5041615;28;20086;-71
2023/06/26 02:35:11;;;;;;;8.63;5.68;;;;;;;20.92;63.51;101096.53;5042875;28;20132;-73
2023/06/26 02:37:36;;;;;;;5.35;4.85;;;;;;;20.95;63.52;101090.84;5042165;28;20311;-75
2023/06/26 02:40:03;;;;;;;6.47;5.75;;;;;;;20.87;63.73;101095.09;5039485;28;20439;-71
2023/06/26 02:42:29;;;;;;;6.88;5.15;;;;;;;20.90;64.07;101104.78;5037364;28;20408;-72
2023/06/26 02:44:54;;;;;;;7.70;5.38;;;;;;;20.82;64.06;101097.38;5042179;28;20079;-73
2023/06/26 02:47:20;;;;;;;5.85;5.20;;;;;;;20.84;64.06;101102.63;5036341;28;20034;-76
2023/06/26 02:49:45;;;;;;;7.18;5.20;;;;;;;20.81;64.41;101114.56;5041921;28;20056;-72
2023/06/26 02:52:10;;;;;;;6.38;5.70;;;;;;;20.84;64.64;101121.56;5034656;28;20135;-75
2023/06/26 02:54:36;;;;;;;7.00;5.10;;;;;;;20.81;64.34;101121.81;5040816;28;20037;-75
2023/06/26 02:57:01;;;;;;;7.93;5.22;;;;;;;20.73;64.88;101118.94;5037231;28;20044;-71
2023/06/26 02:59:26;;;;;;;6.63;4.68;;;;;;;20.67;65.62;101128.47;5039624;28;20487;-74
2023/06/26 03:01:52;;;;;;;8.25;5.00;;;;;;;20.58;66.30;101135.56;5040724;28;20052;-71
2023/06/26 03:04:17;;;;;;;6.68;4.82;;;;;;;20.56;66.71;101132.13;5040316;28;20033;-75
2023/06/26 03:06:43;;;;;;;6.22;4.55;;;;;;;20.49;67.09;101128.28;5039643;28;20041;-74
2023/06/26 03:09:09;;;;;;;6.97;4.78;;;;;;;20.43;67.54;101136.00;5033245;28;20193;-71
2023/06/26 03:11:34;;;;;;;9.48;5.38;;;;;;;20.51;66.79;101139.78;5022468;28;20032;-74
2023/06/26 03:14:00;;;;;;;8.40;5.25;;;;;;;20.41;67.42;101133.47;5041477;28;20167;-74
2023/06/26 03:16:25;;;;;;;7.70;5.80;;;;;;;20.42;67.99;101137.00;5022017;28;20029;-71
2023/06/26 03:18:50;;;;;;;7.05;4.60;;;;;;;20.40;67.88;101140.72;5041542;28;20037;-72
2023/06/26 03:21:17;;;;;;;7.65;5.32;;;;;;;20.37;68.08;101138.28;5041043;28;20139;-73
2023/06/26 03:23:42;;;;;;;5.93;5.07;;;;;;;20.36;68.45;101141.97;5037176;28;20143;-74
2023/06/26 03:26:08;;;;;;;8.52;4.97;;;;;;;20.40;68.29;101143.41;5038525;28;20221;-74
2023/06/26 03:28:33;;;;;;;7.32;4.80;;;;;;;20.33;68.25;101127.88;5040362;28;20025;-72
2023/06/26 03:30:58;;;;;;;7.53;5.03;;;;;;;20.24;68.50;101137.63;5041510;28;20043;-73
2023/06/26 03:33:24;;;;;;;8.57;5.20;;;;;;;20.19;68.97;101148.00;5040790;28;20021;-74
2023/06/26 03:35:50;;;;;;;8.88;5.20;;;;;;;20.11;69.51;101145.94;5037496;28;20040;-74
2023/06/26 03:38:15;;;;;;;6.63;5.22;;;;;;;20.09;70.29;101142.50;5043250;28;20551;-72
2023/06/26 03:40:40;;;;;;;9.38;5.47;;;;;;;20.06;70.81;101142.75;5037268;28;20070;-74
2023/06/26 03:43:06;;;;;;;9.85;5.38;;;;;;;19.98;72.39;101141.72;5038157;28;20116;-73
2023/06/26 03:45:31;;;;;;;8.15;5.70;;;;;;;19.95;72.81;101148.25;5041749;28;20083;-73
2023/06/26 03:47:56;;;;;;;8.48;5.82;;;;;;;19.82;73.33;101148.44;5040455;28;20021;-74
2023/06/26 03:50:22;;;;;;;11.63;5.60;;;;;;;19.90;74.13;101156.75;5039706;28;20442;-74
2023/06/26 03:52:47;;;;;;;11.27;5.38;;;;;;;19.88;74.35;101153.31;5041161;28;20044;-73
2023/06/26 03:55:13;;;;;;;9.60;5.80;;;;;;;19.86;74.62;101149.91;5040706;28;20109;-72
2023/06/26 03:57:38;;;;;;;10.38;5.47;;;;;;;19.85;74.76;101153.56;5036955;28;20066;-73
2023/06/26 04:00:13;;;;;;;8.85;5.60;;;;;;;19.80;74.88;101158.50;5038673;28;20025;-74
2023/06/26 04:02:39;;;;;;;8.25;5.43;;;;;;;19.82;74.76;101161.09;5040483;28;20078;-73
2023/06/26 04:05:04;;;;;;;9.07;5.65;;;;;;;19.85;74.76;101150.88;5041323;28;20028;-73
2023/06/26 04:07:30;;;;;;;9.07;5.55;;;;;;;19.80;74.96;101169.31;5039092;28;20098;-72
2023/06/26 04:09:56;;;;;;;7.90;5.82;;;;;;;19.81;75.63;101175.56;5041289;28;20075;-73
2023/06/26 04:12:22;;;;;;;9.55;5.90;;;;;;;19.75;76.56;101185.06;5042945;28;20060;-73
2023/06/26 04:14:47;;;;;;;7.85;5.68;;;;;;;19.73;77.04;101180.75;5037972;28;20024;-72
2023/06/26 04:17:13;;;;;;;7.60;5.53;;;;;;;19.74;77.55;101183.34;5042247;28;20033;-73
2023/06/26 04:19:38;;;;;;;9.93;6.20;;;;;;;19.76;77.78;101194.00;5034372;28;20387;-74
2023/06/26 04:22:03;;;;;;;13.55;6.53;;;;;;;19.66;78.13;101177.72;5042082;28;20028;-74
2023/06/26 04:24:29;;;;;;;12.25;5.97;;;;;;;19.75;78.75;101203.97;5041048;28;20544;-75
2023/06/26 04:26:56;;;;;;;10.07;6.10;;;;;;;19.79;78.79;101196.47;5040400;28;20041;-73
2023/06/26 04:29:26;;;;;;;8.15;5.90;;;;;;;19.77;79.50;101193.91;5042042;28;20472;-73
2023/06/26 04:31:53;;;;;;;14.93;6.57;;;;;;;19.76;79.93;101207.50;5038488;28;20130;-75
2023/06/26 04:34:22;;;;;;;10.43;6.22;;;;;;;19.77;80.38;101207.41;5038264;28;20020;-75
2023/06/26 04:36:48;;;;;;;9.85;5.85;;;;;;;19.82;80.46;101201.63;5041957;28;20033;-71
2023/06/26 04:39:14;;;;;;;8.73;6.03;;;;;;;19.81;80.20;101192.63;5041515;28;20185;-74
2023/06/26 04:41:40;;;;;;;10.70;6.15;;;;;;;19.81;80.49;101206.13;5041140;28;20519;-74
2023/06/26 04:44:05;;;;;;;12.63;6.10;;;;;;;19.90;80.07;101218.03;5038237;28;20040;-74
2023/06/26 04:46:31;;;;;;;10.25;6.15;;;;;;;19.99;79.58;101219.09;5037114;28;20052;-71
2023/06/26 04:48:57;;;;;;;13.05;6.60;;;;;;;19.97;80.00;101216.50;5041015;28;20529;-74
2023/06/26 04:51:24;;;;;;;10.88;6.38;;;;;;;19.96;80.72;101222.06;5041315;28;20036;-73
2023/06/26 04:53:52;;;;;;;10.65;6.45;;;;;;;19.94;80.67;101235.69;5041048;28;20071;-71
2023/06/26 04:56:18;;;;;;;15.45;6.57;;;;;;;19.89;81.17;101224.41;5038833;28;20032;-73
2023/06/26 04:58:43;;;;;;;12.88;5.97;;;;;;;19.93;80.83;101231.25;5038989;28;20487;-70
2023/06/26 05:01:10;;;;;;;13.93;6.30;;;;;;;19.83;81.41;101236.59;5036745;28;20270;-74
2023/06/26 05:03:36;;;;;;;12.02;6.32;;;;;;;19.79;81.77;101240.53;5036606;28;20032;-75
2023/06/26 05:06:02;;;;;;;12.55;6.53;;;;;;;19.76;81.87;101242.63;5040681;28;20326;-74
2023/06/26 05:08:27;;;;;;;11.95;6.22;;;;;;;19.80;81.93;101233.28;5037640;28;20112;-75
2023/06/26 05:10:58;;;;;;;12.10;5.82;;;;;;;19.85;81.96;101239.16;5033995;28;20041;-74
2023/06/26 05:13:25;;;;;;;13.77;6.35;;;;;;;19.87;81.99;101234.50;5040559;28;20464;-73
2023/06/26 05:15:51;;;;;;;11.82;6.60;;;;;;;20.01;81.07;101230.63;5035270;28;20709;-72
2023/06/26 05:18:17;;;;;;;12.73;6.07;;;;;;;20.11;80.78;101237.84;5041949;28;20245;-73
2023/06/26 05:20:43;;;;;;;11.80;6.75;;;;;;;20.25;79.66;101233.94;5036717;28;20055;-70
2023/06/26 05:23:11;;;;;;;14.18;6.18;;;;;;;20.22;79.67;101241.44;5041348;28;20033;-75
2023/06/26 05:25:37;;;;;;;12.70;6.05;;;;;;;20.15;79.28;101247.41;5037008;28;20024;-76
2023/06/26 05:28:05;;;;;;;13.25;5.55;;;;;;;20.06;80.36;101252.69;5039811;28;20632;-72
2023/06/26 05:30:31;;;;;;;15.18;5.82;;;;;;;20.07;79.40;101249.03;5035108;28;20055;-73
2023/06/26 05:32:59;;;;;;;15.68;6.47;;;;;;;20.02;79.34;101248.53;5040532;28;20021;-70
2023/06/26 05:35:29;;;;;;;11.38;5.80;;;;;;;19.95;79.99;101264.44;5044584;28;20021;-74
2023/06/26 05:37:55;;;;;;;15.85;5.72;;;;;;;19.97;79.86;101264.28;5043694;28;20025;-72
2023/06/26 05:40:21;;;;;;;12.18;5.72;;;;;;;20.08;79.35;101275.06;5026771;28;20047;-70
2023/06/26 05:42:47;;;;;;;13.50;5.18;;;;;;;20.26;78.77;101267.22;5042503;28;20525;-72
2023/06/26 05:45:12;;;;;;;12.75;6.03;;;;;;;20.41;77.88;101271.34;5044006;28;20020;-70
2023/06/26 05:47:38;;;;;;;11.68;5.40;;;;;;;20.30;77.57;101271.38;5043966;28;20029;-70
2023/06/26 05:50:04;;;;;;;12.43;5.50;;;;;;;20.06;77.41;101277.00;5039606;28;20476;-73
2023/06/26 05:52:30;;;;;;;11.27;5.28;;;;;;;19.89;77.98;101279.28;5044123;28;20192;-72
2023/06/26 05:54:59;;;;;;;9.70;4.97;;;;;;;19.88;78.47;101280.28;5044312;28;20044;-74
2023/06/26 05:57:27;;;;;;;13.52;5.18;;;;;;;19.97;79.14;101283.19;5041219;28;20597;-73
2023/06/26 05:59:52;;;;;;;14.88;5.22;;;;;;;19.94;77.95;101273.53;5042896;28;20029;-71
2023/06/26 06:02:18;;;;;;;11.30;5.10;;;;;;;20.01;76.24;101288.22;5040459;28;20036;-73
2023/06/26 06:04:43;;;;;;;9.32;4.65;;;;;;;20.19;76.87;101287.66;5039498;28;20083;-74
2023/06/26 06:07:09;;;;;;;12.82;4.90;;;;;;;20.29;75.82;101292.16;5034482;28;20036;-73
2023/06/26 06:09:34;;;;;;;10.85;4.57;;;;;;;20.32;75.46;101301.88;5039226;28;20048;-74
2023/06/26 06:12:01;;;;;;;12.32;4.70;;;;;;;20.46;74.21;101306.09;5040458;28;20028;-72
2023/06/26 06:14:28;;;;;;;12.60;4.45;;;;;;;20.73;73.27;101303.75;5033888;28;20043;-73
2023/06/26 06:16:53;;;;;;;15.25;5.00;;;;;;;20.68;72.54;101315.97;5041721;28;20033;-74
2023/06/26 06:19:18;;;;;;;9.88;4.05;;;;;;;20.81;72.99;101311.19;5041212;28;20292;-72
2023/06/26 06:21:44;;;;;;;12.75;4.50;;;;;;;20.84;72.61;101319.91;5043974;28;20032;-74
2023/06/26 06:24:09;;;;;;;10.43;4.18;;;;;;;21.00;71.08;101318.59;5042987;28;20068;-74
2023/06/26 06:26:35;;;;;;;8.75;3.97;;;;;;;21.02;70.18;101316.59;5039246;28;20556;-73
2023/06/26 06:29:00;;;;;;;12.10;4.30;;;;;;;21.00;69.92;101324.00;5022241;28;20035;-76
2023/06/26 06:31:28;;;;;;;10.50;4.25;;;;;;;21.06;70.15;101334.28;5041076;28;20074;-71
2023/06/26 06:33:54;;;;;;;10.50;3.78;;;;;;;21.28;69.49;101330.56;5039063;28;20094;-73
2023/06/26 06:36:19;;;;;;;7.53;3.60;;;;;;;21.54;68.47;101331.84;5041914;28;20564;-74
2023/06/26 06:38:44;;;;;;;8.40;3.75;;;;;;;21.68;66.98;101330.59;5042420;28;20310;-73
2023/06/26 06:41:10;;;;;;;9.32;4.50;;;;;;;21.70;66.68;101325.91;5041981;28;20025;-72
2023/06/26 06:43:36;;;;;;;13.35;4.13;;;;;;;21.85;67.66;101324.50;5043438;28;21602;-74
2023/06/26 06:46:01;;;;;;;12.38;4.20;;;;;;;22.17;66.78;101326.16;5040458;28;20043;-74
2023/06/26 06:48:27;;;;;;;12.35;3.92;;;;;;;22.55;65.35;101346.13;5020570;28;20108;-72
2023/06/26 06:50:52;;;;;;;8.38;3.40;;;;;;;22.43;63.78;101345.41;5033744;28;20124;-72
2023/06/26 06:53:20;;;;;;;7.68;3.33;;;;;;;22.48;63.68;101347.69;5031704;28;20033;-73
2023/06/26 06:55:46;;;;;;;9.77;3.55;;;;;;;22.70;63.25;101365.53;5040083;28;20036;-72
2023/06/26 06:58:11;;;;;;;8.05;3.78;;;;;;;22.69;61.99;101353.81;5020209;28;20660;-72
2023/06/26 07:00:36;;;;;;;8.18;3.65;;;;;;;22.65;61.02;101368.69;5039108;28;20033;-72
2023/06/26 07:03:02;;;;;;;6.80;3.10;;;;;;;22.55;61.93;101357.00;5037703;28;20463;-71
2023/06/26 07:05:28;;;;;;;8.40;3.05;;;;;;;22.56;61.91;101367.69;5040530;28;20021;-72
2023/06/26 07:07:53;;;;;;;7.25;3.53;;;;;;;22.70;61.59;101368.25;5043411;28;20029;-73
2023/06/26 07:10:19;;;;;;;7.63;3.10;;;;;;;22.87;60.75;101379.25;5022631;28;20107;-71
2023/06/26 07:12:44;;;;;;;6.03;3.00;;;;;;;23.04;60.47;101383.09;5036095;28;20395;-72
2023/06/26 07:15:10;;;;;;;7.18;2.95;;;;;;;23.10;60.19;101381.66;5031676;28;20479;-70
2023/06/26 07:17:37;;;;;;;8.75;3.05;;;;;;;22.99;59.89;101385.41;5035926;28;20086;-71
2023/06/26 07:20:07;;;;;;;7.20;3.35;;;;;;;23.09;59.75;101385.38;5037339;28;20033;-72
2023/06/26 07:22:33;;;;;;;5.95;2.70;;;;;;;23.16;59.24;101380.19;5036977;28;20460;-73
2023/06/26 07:24:58;;;;;;;6.57;3.00;;;;;;;23.07;59.85;101392.78;5042386;28;20119;-72
2023/06/26 07:27:23;;;;;;;7.18;3.30;;;;;;;23.10;59.42;101401.50;5037927;28;20029;-72
2023/06/26 07:29:49;;;;;;;8.35;3.00;;;;;;;23.33;59.20;101404.75;5031698;28;20094;-72
2023/06/26 07:32:14;;;;;;;12.52;3.42;;;;;;;23.29;58.38;101406.06;5038393;28;20032;-70
2023/06/26 07:34:40;;;;;;;5.10;3.00;;;;;;;23.26;58.71;101411.78;5034771;28;20143;-70
2023/06/26 07:37:05;;;;;;;5.38;2.70;;;;;;;23.28;59.12;101417.94;5040359;28;20486;-71
2023/06/26 07:39:30;;;;;;;8.25;3.40;;;;;;;22.93;59.22;101428.56;5041413;28;20415;-71
2023/06/26 07:41:58;;;;;;;4.90;3.10;;;;;;;22.63;60.29;101420.38;5038754;28;20081;-72
2023/06/26 07:44:23;;;;;;;6.10;3.40;;;;;;;23.08;59.99;101421.69;5038859;28;20020;-71
2023/06/26 07:46:48;;;;;;;5.82;3.50;;;;;;;23.84;58.10;101414.31;5040862;28;20033;-71
2023/06/26 07:49:14;;;;;;;6.20;2.75;;;;;;;24.95;55.47;101425.88;5031115;28;20467;-72
2023/06/26 07:51:39;;;;;;;8.30;3.65;;;;;;;25.00;53.74;101425.41;5036898;28;20498;-72
2023/06/26 07:54:05;;;;;;;8.85;3.67;;;;;;;24.72;53.60;101422.78;5045771;28;20048;-71
2023/06/26 07:56:30;;;;;;;5.05;3.10;;;;;;;24.62;54.34;101430.16;5037230;28;20029;-71
2023/06/26 07:58:57;;;;;;;10.85;3.15;;;;;;;24.39;54.57;101435.22;5038123;28;20040;-71
2023/06/26 08:01:24;;;;;;;5.55;2.63;;;;;;;24.39;54.65;101439.81;5019400;28;20033;-72
2023/06/26 08:03:49;;;;;;;5.85;2.80;;;;;;;24.49;53.61;101455.03;5030634;28;20037;-71
2023/06/26 08:06:14;;;;;;;4.50;2.40;;;;;;;23.92;54.29;101440.75;5033049;28;20048;-71
2023/06/26 08:08:40;;;;;;;5.57;2.75;;;;;;;23.96;55.16;101438.59;5036767;28;20242;-71
2023/06/26 08:11:05;;;;;;;5.57;2.50;;;;;;;24.93;51.62;101437.94;5038222;28;20078;-72
2023/06/26 08:13:31;;;;;;;4.28;2.35;;;;;;;25.25;50.81;101432.78;5040253;28;20043;-71
2023/06/26 08:15:56;;;;;;;4.88;2.20;;;;;;;25.91;49.91;101434.03;5035843;28;20155;-73
2023/06/26 08:18:29;;;;;;;4.50;2.30;;;;;;;25.44;49.78;101441.75;5070502;27;20941;-72
2023/06/26 08:20:54;;;;;;;4.05;2.30;;;;;;;25.89;48.72;101447.00;5075218;28;20032;-72
2023/06/26 08:23:21;;;;;;;6.53;2.45;;;;;;;26.22;47.46;101453.44;5075299;28;20028;-72
2023/06/26 08:25:47;;;;;;;8.07;2.70;;;;;;;25.20;48.71;101459.63;5076253;28;20070;-72
2023/06/26 08:28:12;;;;;;;5.03;2.17;;;;;;;25.97;47.63;101440.72;5074275;28;20612;-72
2023/06/26 08:30:37;;;;;;;5.45;2.22;;;;;;;26.89;45.61;101450.69;5075332;28;20033;-71
2023/06/26 08:33:03;;;;;;;6.03;2.15;;;;;;;26.64;45.23;101444.34;5076960;28;20023;-72
2023/06/26 08:35:28;;;;;;;6.15;2.22;;;;;;;26.55;43.62;101446.22;5074209;28;20043;-71
2023/06/26 08:37:54;;;;;;;4.47;2.13;;;;;;;25.55;45.04;101461.44;5075551;28;20032;-71
2023/06/26 08:40:21;;;;;;;5.45;1.90;;;;;;;25.90;43.46;101466.94;5081932;28;20028;-72
2023/06/26 08:42:46;;;;;;;5.88;2.00;;;;;;;26.45;41.02;101452.81;5075704;28;20115;-73
2023/06/26 08:45:12;;;;;;;3.40;1.63;;;;;;;27.60;39.51;101461.94;5074241;28;20153;-70
2023/06/26 08:47:39;;;;;;;5.22;1.67;;;;;;;28.46;37.61;101459.22;5072662;28;20016;-70
2023/06/26 08:50:10;;;;;;;5.80;1.63;;;;;;;28.22;37.62;101470.28;5076133;28;20032;-69
2023/06/26 08:53:07;;;;;;;4.10;1.70;;;;;;;26.76;41.16;101473.03;5075896;28;20020;-71
2023/06/26 08:55:38;;;;;;;5.63;1.80;;;;;;;25.46;43.85;101475.16;5069461;28;20044;-71
2023/06/26 08:58:04;;;;;;;4.78;1.73;;;;;;;26.27;42.46;101466.56;5089360;28;20148;-71
2023/06/26 09:00:30;;;;;;;5.45;1.70;;;;;;;26.17;43.06;101476.75;5081476;28;20116;-72
2023/06/26 09:02:56;;;;;;;3.58;1.60;;;;;;;26.14;42.04;101483.41;5073531;28;20059;-71
2023/06/26 09:05:21;;;;;;;3.50;1.48;;;;;;;27.26;39.77;101487.59;5075355;28;20153;-70
2023/06/26 09:07:47;;;;;;;3.65;1.50;;;;;;;28.05;38.10;101494.16;5075468;28;20606;-72
2023/06/26 09:10:12;;;;;;;2.95;1.20;;;;;;;29.11;35.82;101481.75;5079144;28;20509;-71
2023/06/26 09:12:38;;;;;;;5.97;1.58;;;;;;;29.42;34.88;101482.47;5074024;28;20155;-71
2023/06/26 09:15:06;;;;;;;4.53;1.45;;;;;;;29.68;34.17;101492.19;5075977;28;20024;-72
2023/06/26 09:17:37;;;;;;;4.47;1.48;;;;;;;30.18;33.13;101491.47;5073475;28;20052;-70
2023/06/26 09:20:04;;;;;;;6.45;1.60;;;;;;;30.92;32.05;101495.94;5082491;28;20020;-70
2023/06/26 09:22:33;;;;;;;2.72;1.20;;;;;;;31.81;31.53;101489.91;5077099;28;20032;-72
2023/06/26 09:24:58;;;;;;;3.58;1.27;;;;;;;31.82;30.76;101497.13;5079468;28;20020;-71
2023/06/26 09:27:25;;;;;;;2.30;1.00;;;;;;;31.50;30.65;101497.53;5074488;28;20021;-71
2023/06/26 09:29:50;;;;;;;2.47;1.00;;;;;;;31.58;29.44;101492.94;5061896;28;20048;-72
2023/06/26 09:32:16;;;;;;;2.60;1.30;;;;;;;31.74;29.07;101498.13;5060036;28;20029;-72
2023/06/26 09:34:44;;;;;;;5.30;1.52;;;;;;;31.91;29.26;101523.47;5056561;28;20280;-71
2023/06/26 09:37:11;;;;;;;3.42;1.40;;;;;;;32.04;28.26;101515.28;5067386;28;20888;-71
2023/06/26 09:39:37;;;;;;;3.25;1.30;;;;;;;32.01;28.12;101518.44;5060694;28;20025;-71
2023/06/26 09:42:04;;;;;;;3.45;1.25;;;;;;;31.97;28.64;101522.66;5059162;28;20031;-70
2023/06/26 09:44:31;;;;;;;5.05;1.10;;;;;;;31.93;27.70;101529.59;5057766;28;20111;-70
2023/06/26 09:46:57;;;;;;;4.70;1.58;;;;;;;32.24;26.71;101532.75;5059432;28;20112;-70
2023/06/26 09:49:23;;;;;;;4.40;1.35;;;;;;;32.68;26.69;101525.97;5062074;28;20115;-70
2023/06/26 09:51:49;;;;;;;5.47;1.30;;;;;;;31.00;27.71;101537.03;5059079;28;20028;-71
2023/06/26 09:54:17;;;;;;;3.65;1.25;;;;;;;30.93;29.42;101533.34;5068869;28;20111;-71
2023/06/26 09:56:43;;;;;;;2.38;1.10;;;;;;;32.21;27.22;101546.09;5055396;28;20483;-70
2023/06/26 09:59:09;;;;;;;3.47;1.20;;;;;;;33.03;25.34;101538.81;5057694;28;20020;-72
2023/06/26 10:01:40;;;;;;;2.78;1.00;;;;;;;32.40;26.94;101542.63;5063017;28;20127;-70
2023/06/26 10:04:05;;;;;;;4.45;1.35;;;;;;;32.66;25.82;101533.59;5062461;28;20303;-70
2023/06/26 10:06:35;;;;;;;2.42;1.05;;;;;;;32.83;24.80;101535.97;5058241;28;20025;-70
2023/06/26 10:09:02;;;;;;;4.68;0.93;;;;;;;32.96;23.97;101545.16;5065770;28;20578;-70
2023/06/26 10:11:43;;;;;;;3.45;1.17;;;;;;;34.09;24.67;101552.63;5059812;28;20031;-71
2023/06/26 10:14:11;;;;;;;3.78;1.40;;;;;;;34.66;23.70;101554.56;5059036;28;20482;-70
2023/06/26 10:16:39;;;;;;;2.97;1.25;;;;;;;33.90;23.71;101557.09;5058839;28;20040;-71
2023/06/26 10:19:07;;;;;;;2.92;1.40;;;;;;;34.16;23.48;101542.41;5061696;28;20357;-71
2023/06/26 10:21:34;;;;;;;8.63;1.40;;;;;;;34.11;23.62;101554.13;5057536;28;20024;-71
2023/06/26 10:24:02;;;;;;;1.95;1.13;;;;;;;33.55;23.40;101550.97;5062646;28;20029;-71
2023/06/26 10:26:29;;;;;;;5.20;1.60;;;;;;;33.28;23.34;101563.91;5059367;28;20130;-71
2023/06/26 10:28:57;;;;;;;1.85;1.00;;;;;;;33.20;22.67;101557.50;5061429;28;20028;-71
2023/06/26 10:31:26;;;;;;;2.22;1.00;;;;;;;33.41;22.68;101561.97;5060351;28;20024;-71
2023/06/26 10:33:52;;;;;;;3.53;0.90;;;;;;;34.14;22.25;101539.84;5065886;28;20098;-70
2023/06/26 10:36:27;;;;;;;2.22;1.10;;;;;;;34.23;21.44;101565.31;5063360;28;20043;-70
2023/06/26 10:38:56;;;;;;;2.33;1.10;;;;;;;34.39;20.94;101561.25;5057210;28;20027;-71
2023/06/26 10:41:25;;;;;;;2.83;1.00;;;;;;;34.93;21.02;101573.78;5059338;28;20035;-71
2023/06/26 10:44:12;;;;;;;2.65;1.02;;;;;;;36.11;20.74;101575.84;5059264;28;20028;-70
2023/06/26 10:46:58;;;;;;;2.67;0.95;;;;;;;34.60;21.11;101572.03;5058307;28;20029;-71
2023/06/26 10:49:30;;;;;;;2.80;0.90;;;;;;;34.01;22.55;101569.44;5058543;28;20232;-71
2023/06/26 10:51:58;;;;;;;3.23;1.30;;;;;;;33.59;22.53;101577.94;5062658;28;20141;-69
2023/06/26 10:54:29;;;;;;;3.53;1.10;;;;;;;32.20;24.83;101582.94;5062233;28;20039;-70
2023/06/26 10:56:58;;;;;;;4.20;1.35;;;;;;;32.28;25.64;101581.94;5054776;28;20395;-70
2023/06/26 10:59:26;;;;;;;3.38;1.20;;;;;;;30.92;25.63;101575.63;5054470;28;20040;-71
2023/06/26 11:01:57;;;;;;;3.22;0.90;;;;;;;29.69;27.36;101576.22;5054773;28;20409;-70
2023/06/26 11:04:43;;;;;;;2.53;1.20;;;;;;;30.35;26.27;101579.13;5059024;28;20032;-70
2023/06/26 11:07:22;;;;;;;2.50;1.20;;;;;;;29.57;27.39;101580.44;5057504;28;20766;-72
2023/06/26 11:09:57;;;;;;;2.28;1.00;;;;;;;30.68;27.08;101587.78;5058584;28;20416;-71
2023/06/26 11:12:44;;;;;;;2.28;1.00;;;;;;;30.38;26.62;101593.31;5063336;28;20031;-71
2023/06/26 11:15:14;;;;;;;2.05;1.00;;;;;;;30.11;26.67;101585.72;5059315;28;20032;-70
2023/06/26 11:17:40;;;;;;;5.07;1.15;;;;;;;30.30;25.37;101590.66;5055100;28;20339;-71
2023/06/26 11:20:08;;;;;;;1.70;1.17;;;;;;;30.42;24.73;101602.03;5063037;28;20024;-71
2023/06/26 11:22:36;;;;;;;3.40;1.10;;;;;;;31.50;24.13;101602.06;5061632;28;20305;-70